Time;durP1;ratioP1;P1;durP2;ratioP2;P2;SDS_P1;SDS_P2;PMS_P1;PMS_P2;Temp;Humidity;BMP_temperature;BMP_pressure;BME280_temperature;BME280_humidity;BME280_pressure;Samples;Min_cycle;Max_cycle;Signal;HPM_P1;HPM_P2
2023/03/17 00:00:41;;;;;;;4.93;3.50;;;8.20;68.80;;;;;;5047124;28;20217;-76
2023/03/17 00:03:19;;;;;;;4.72;3.53;;;8.20;68.90;;;;;;5046892;28;20225;-79
2023/03/17 00:05:48;;;;;;;5.28;3.75;;;8.10;68.80;;;;;;5049108;28;20208;-77
2023/03/17 00:08:21;;;;;;;4.63;4.10;;;8.00;69.10;;;;;;5050662;28;20224;-79
2023/03/17 00:10:48;;;;;;;3.97;3.65;;;8.10;69.40;;;;;;5055149;28;20248;-75
2023/03/17 00:13:22;;;;;;;5.18;4.00;;;8.10;69.70;;;;;;5058904;28;20248;-80
2023/03/17 00:15:54;;;;;;;8.15;4.55;;;8.10;69.70;;;;;;5059347;28;20295;-75
2023/03/17 00:18:22;;;;;;;4.85;4.13;;;8.10;69.70;;;;;;5067128;28;20229;-76
2023/03/17 00:20:51;;;;;;;4.60;3.45;;;8.10;69.60;;;;;;5052477;28;20216;-80
2023/03/17 00:23:22;;;;;;;4.35;4.00;;;8.00;70.20;;;;;;5051814;28;20338;-77
2023/03/17 00:25:56;;;;;;;5.65;4.35;;;8.00;70.40;;;;;;5057298;28;20229;-80
2023/03/17 00:28:25;;;;;;;4.90;3.65;;;8.00;70.60;;;;;;5050564;28;20224;-80
2023/03/17 00:30:55;;;;;;;5.07;3.17;;;8.00;70.80;;;;;;5052053;28;20611;-77
2023/03/17 00:33:24;;;;;;;7.72;4.03;;;8.00;70.90;;;;;;5052967;28;20309;-79
2023/03/17 00:35:54;;;;;;;5.00;3.80;;;7.80;70.60;;;;;;5055256;28;20304;-76
2023/03/17 00:38:23;;;;;;;6.03;4.57;;;7.80;71.10;;;;;;5051196;28;20216;-77
2023/03/17 00:40:50;;;;;;;6.20;4.45;;;7.80;71.50;;;;;;5053444;28;20559;-79
2023/03/17 00:43:18;;;;;;;7.72;3.80;;;7.80;71.80;;;;;;5055630;28;20278;-79
2023/03/17 00:45:45;;;;;;;4.35;3.95;;;7.80;71.50;;;;;;5053118;28;20650;-80
2023/03/17 00:48:15;;;;;;;6.05;4.43;;;7.80;72.60;;;;;;5055560;28;20244;-79
2023/03/17 00:50:43;;;;;;;6.75;4.90;;;7.80;71.70;;;;;;5053048;28;20308;-79
2023/03/17 00:53:19;;;;;;;4.15;3.75;;;7.70;72.00;;;;;;5054967;28;20282;-79
2023/03/17 00:55:46;;;;;;;4.85;4.32;;;7.70;72.10;;;;;;5054395;28;20580;-77
2023/03/17 00:58:17;;;;;;;6.30;3.92;;;7.70;72.50;;;;;;5051881;28;20224;-79
2023/03/17 01:00:44;;;;;;;9.07;5.13;;;7.70;72.80;;;;;;5048951;28;20227;-79
2023/03/17 01:03:13;;;;;;;9.63;4.95;;;7.60;72.60;;;;;;5057104;28;20244;-76
2023/03/17 01:05:41;;;;;;;4.57;3.70;;;7.50;72.70;;;;;;5057964;28;20387;-76
2023/03/17 01:08:10;;;;;;;4.85;4.38;;;7.50;73.10;;;;;;5054802;28;20284;-79
2023/03/17 01:10:39;;;;;;;8.02;4.10;;;7.60;73.10;;;;;;5054301;28;20283;-80
2023/03/17 01:13:07;;;;;;;9.35;3.92;;;7.60;73.40;;;;;;5055093;28;20303;-78
2023/03/17 01:15:35;;;;;;;8.13;5.47;;;7.50;73.30;;;;;;5057269;28;20233;-79
2023/03/17 01:18:02;;;;;;;5.82;4.65;;;7.60;73.50;;;;;;5055077;28;20228;-79
2023/03/17 01:20:33;;;;;;;6.90;5.25;;;7.60;73.80;;;;;;5054559;28;20689;-76
2023/03/17 01:23:01;;;;;;;9.88;4.97;;;7.50;73.80;;;;;;5055615;28;20282;-79
2023/03/17 01:25:28;;;;;;;6.63;4.90;;;7.50;73.80;;;;;;5057673;28;20225;-79
2023/03/17 01:27:59;;;;;;;5.55;5.05;;;7.40;74.10;;;;;;5052706;28;20614;-78
2023/03/17 01:30:29;;;;;;;7.38;5.30;;;7.40;74.30;;;;;;5079656;28;20220;-78
2023/03/17 01:33:00;;;;;;;5.95;4.72;;;7.50;74.70;;;;;;5060162;28;20255;-79
2023/03/17 01:35:30;;;;;;;8.30;4.28;;;7.50;74.80;;;;;;5057066;28;20274;-79
2023/03/17 01:38:01;;;;;;;5.22;4.72;;;7.50;75.00;;;;;;5053893;28;20252;-76
2023/03/17 01:40:34;;;;;;;6.60;4.45;;;7.50;74.90;;;;;;5054797;28;20309;-79
2023/03/17 01:43:18;;;;;;;5.38;4.55;;;7.40;74.90;;;;;;5052939;28;20255;-80
2023/03/17 01:46:26;;;;;;;6.20;4.90;;;7.50;75.30;;;;;;5052790;28;20224;-78
2023/03/17 01:49:08;;;;;;;6.95;5.32;;;7.50;75.30;;;;;;5051766;28;20252;-74
2023/03/17 01:51:42;;;;;;;5.28;4.80;;;7.40;75.60;;;;;;5053166;28;20225;-75
2023/03/17 01:54:15;;;;;;;4.97;4.47;;;7.40;76.00;;;;;;5052075;28;20220;-75
2023/03/17 01:56:45;;;;;;;8.10;5.15;;;7.40;76.10;;;;;;5052321;28;20244;-75
2023/03/17 01:59:19;;;;;;;5.60;5.10;;;7.40;76.50;;;;;;5051656;28;20254;-78
2023/03/17 02:01:50;;;;;;;7.95;5.43;;;7.40;76.60;;;;;;5050010;28;20285;-76
2023/03/17 02:04:19;;;;;;;5.55;5.05;;;7.40;76.60;;;;;;5056572;28;20298;-79
2023/03/17 02:06:48;;;;;;;9.75;5.28;;;7.30;76.70;;;;;;5056521;28;20224;-79
2023/03/17 02:09:16;;;;;;;11.07;5.53;;;7.40;77.00;;;;;;5055822;28;20232;-75
2023/03/17 02:11:44;;;;;;;5.80;5.15;;;7.40;77.20;;;;;;5059937;28;20644;-78
2023/03/17 02:14:14;;;;;;;7.68;4.88;;;7.40;77.20;;;;;;5057091;28;20550;-79
2023/03/17 02:16:44;;;;;;;7.60;4.72;;;7.40;77.30;;;;;;5056020;28;20228;-76
2023/03/17 02:19:25;;;;;;;6.43;5.35;;;7.30;77.70;;;;;;5055253;28;20278;-79
2023/03/17 02:21:55;;;;;;;6.72;5.10;;;7.30;78.00;;;;;;5055767;28;20236;-79
2023/03/17 02:24:31;;;;;;;5.38;4.28;;;7.30;78.10;;;;;;5055581;28;20247;-76
2023/03/17 02:27:04;;;;;;;6.97;4.82;;;7.30;77.80;;;;;;5056014;28;20220;-76
2023/03/17 02:29:33;;;;;;;9.55;5.28;;;7.30;78.10;;;;;;5053502;28;20557;-78
2023/03/17 02:32:04;;;;;;;7.15;5.63;;;7.30;78.10;;;;;;5045543;28;20294;-79
2023/03/17 02:34:32;;;;;;;6.45;4.75;;;7.30;78.40;;;;;;5055290;28;20234;-78
2023/03/17 02:37:01;;;;;;;5.60;4.90;;;7.30;78.40;;;;;;5055397;28;20256;-76
2023/03/17 02:39:29;;;;;;;5.45;4.70;;;7.30;78.20;;;;;;5054972;28;20718;-79
2023/03/17 02:41:56;;;;;;;8.25;5.22;;;7.40;78.40;;;;;;5055627;28;20220;-79
2023/03/17 02:44:23;;;;;;;11.35;5.07;;;7.30;78.20;;;;;;5054754;28;20232;-76
2023/03/17 02:46:50;;;;;;;5.80;5.05;;;7.30;78.90;;;;;;5055475;28;20231;-79
2023/03/17 02:49:18;;;;;;;12.02;5.30;;;7.30;78.20;;;;;;5054399;28;20225;-79
2023/03/17 02:51:46;;;;;;;5.57;4.45;;;7.20;78.20;;;;;;5054995;28;20228;-76
2023/03/17 02:54:14;;;;;;;7.78;5.82;;;7.30;78.40;;;;;;5054875;28;20232;-79
2023/03/17 02:56:41;;;;;;;5.40;4.82;;;7.20;79.30;;;;;;5055131;28;20300;-76
2023/03/17 02:59:09;;;;;;;6.00;5.40;;;7.30;78.70;;;;;;5054778;28;20225;-79
2023/03/17 03:01:37;;;;;;;9.90;5.63;;;7.30;78.00;;;;;;5054729;28;20220;-79
2023/03/17 03:04:05;;;;;;;5.45;3.95;;;7.30;78.10;;;;;;5054201;28;20292;-76
2023/03/17 03:06:33;;;;;;;6.85;5.30;;;7.30;78.00;;;;;;5054334;28;20217;-76
2023/03/17 03:09:00;;;;;;;8.50;5.10;;;7.30;78.10;;;;;;5054040;28;20229;-79
2023/03/17 03:11:28;;;;;;;7.60;5.70;;;7.30;78.10;;;;;;5048355;28;20249;-79
2023/03/17 03:13:55;;;;;;;6.10;5.13;;;7.40;78.40;;;;;;5033172;28;20279;-80
2023/03/17 03:16:22;;;;;;;6.90;6.03;;;7.40;78.40;;;;;;5037514;28;20221;-76
2023/03/17 03:18:49;;;;;;;5.28;4.78;;;7.40;78.20;;;;;;5045666;28;20659;-76
2023/03/17 03:21:16;;;;;;;6.13;4.68;;;7.50;78.30;;;;;;5040480;28;20217;-78
2023/03/17 03:23:45;;;;;;;6.45;4.85;;;7.50;77.70;;;;;;5033472;28;20671;-76
2023/03/17 03:26:12;;;;;;;5.22;4.45;;;7.50;77.60;;;;;;5042208;28;20374;-76
2023/03/17 03:28:41;;;;;;;8.23;5.85;;;7.50;77.70;;;;;;5028740;28;20248;-79
2023/03/17 03:31:09;;;;;;;8.43;5.18;;;7.60;78.00;;;;;;5054197;28;20558;-76
2023/03/17 03:33:36;;;;;;;8.65;5.10;;;7.60;77.70;;;;;;5051843;28;20224;-79
2023/03/17 03:36:03;;;;;;;8.10;5.45;;;7.60;77.30;;;;;;5033258;28;20248;-79
2023/03/17 03:38:30;;;;;;;7.57;4.75;;;7.50;77.00;;;;;;5034782;28;20237;-76
2023/03/17 03:40:58;;;;;;;6.93;5.60;;;7.60;77.20;;;;;;5034287;28;20291;-76
2023/03/17 03:43:25;;;;;;;9.55;5.47;;;7.60;77.00;;;;;;5068358;28;20250;-79
2023/03/17 03:45:53;;;;;;;13.57;5.78;;;7.60;77.30;;;;;;5074393;28;20698;-79
2023/03/17 03:48:21;;;;;;;6.85;5.20;;;7.60;77.10;;;;;;5073428;28;20236;-79
2023/03/17 03:50:48;;;;;;;5.32;4.78;;;7.60;77.00;;;;;;5073517;28;20623;-78
2023/03/17 03:53:16;;;;;;;5.93;5.03;;;7.60;76.90;;;;;;5079405;28;20313;-78
2023/03/17 03:55:42;;;;;;;7.57;6.07;;;7.60;77.10;;;;;;5074119;28;20277;-79
2023/03/17 03:58:10;;;;;;;5.68;4.65;;;7.60;77.10;;;;;;5069625;28;20346;-79
2023/03/17 04:00:37;;;;;;;6.20;5.47;;;7.60;76.90;;;;;;5055289;28;20609;-75
2023/03/17 04:03:05;;;;;;;5.30;4.70;;;7.60;77.10;;;;;;5053684;28;20228;-75
2023/03/17 04:05:32;;;;;;;10.20;4.63;;;7.70;77.20;;;;;;5053519;28;20316;-79
2023/03/17 04:08:00;;;;;;;8.75;6.03;;;7.60;76.70;;;;;;5053424;28;20619;-76
2023/03/17 04:10:27;;;;;;;7.47;5.57;;;7.70;76.70;;;;;;5053245;28;20484;-79
2023/03/17 04:12:55;;;;;;;8.35;5.40;;;7.70;76.40;;;;;;5054062;28;20700;-79
2023/03/17 04:15:26;;;;;;;8.23;5.25;;;7.60;76.50;;;;;;5053136;28;20220;-79
2023/03/17 04:17:53;;;;;;;10.65;6.22;;;7.60;76.40;;;;;;5053739;28;20225;-80
2023/03/17 04:20:22;;;;;;;6.57;4.60;;;7.60;76.40;;;;;;5052712;28;20308;-77
2023/03/17 04:22:50;;;;;;;5.38;4.88;;;7.60;76.30;;;;;;5053771;28;20547;-80
2023/03/17 04:25:18;;;;;;;5.55;5.05;;;7.60;76.30;;;;;;5052582;28;20587;-76
2023/03/17 04:27:45;;;;;;;4.88;4.47;;;7.70;76.30;;;;;;5053675;28;20228;-79
2023/03/17 04:30:15;;;;;;;5.22;4.72;;;7.70;76.40;;;;;;5053349;28;20304;-79
2023/03/17 04:32:43;;;;;;;8.90;5.35;;;7.70;76.20;;;;;;5052667;28;20290;-76
2023/03/17 04:35:13;;;;;;;10.23;5.32;;;7.60;76.00;;;;;;5052568;28;20220;-76
2023/03/17 04:37:42;;;;;;;5.28;4.78;;;7.50;75.80;;;;;;5051196;28;20220;-79
2023/03/17 04:40:12;;;;;;;6.40;5.00;;;7.60;76.40;;;;;;5053357;28;20297;-79
2023/03/17 04:42:40;;;;;;;5.22;4.22;;;7.60;76.30;;;;;;5053051;28;20666;-77
2023/03/17 04:45:10;;;;;;;7.38;5.30;;;7.50;75.80;;;;;;5053177;28;20270;-76
2023/03/17 04:47:38;;;;;;;6.38;4.97;;;7.50;76.00;;;;;;5052735;28;20228;-76
2023/03/17 04:50:06;;;;;;;8.40;5.22;;;7.50;76.00;;;;;;5052428;28;20220;-76
2023/03/17 04:52:34;;;;;;;5.57;4.55;;;7.50;75.80;;;;;;5053376;28;20260;-76
2023/03/17 04:55:03;;;;;;;7.75;4.32;;;7.50;75.50;;;;;;5053522;28;20295;-79
2023/03/17 04:57:30;;;;;;;7.97;4.57;;;7.40;75.60;;;;;;5052472;28;20319;-79
2023/03/17 04:59:57;;;;;;;7.65;5.47;;;7.30;75.70;;;;;;5052860;28;20239;-76
2023/03/17 05:02:25;;;;;;;4.65;4.25;;;7.30;75.80;;;;;;5052469;28;20244;-76
2023/03/17 05:04:52;;;;;;;6.70;4.60;;;7.30;76.00;;;;;;5046614;28;20332;-79
2023/03/17 05:07:19;;;;;;;6.28;4.25;;;7.40;76.20;;;;;;5071024;28;20220;-79
2023/03/17 05:09:47;;;;;;;6.15;4.38;;;7.40;75.90;;;;;;5054261;28;20229;-79
2023/03/17 05:12:16;;;;;;;5.88;4.28;;;7.40;75.10;;;;;;5053998;28;20312;-79
2023/03/17 05:14:43;;;;;;;4.85;4.28;;;7.40;75.00;;;;;;5053495;28;20228;-76
2023/03/17 05:17:10;;;;;;;8.15;5.47;;;7.40;75.40;;;;;;5053539;28;20225;-79
2023/03/17 05:19:37;;;;;;;6.25;5.05;;;7.30;75.50;;;;;;5052239;28;20243;-76
2023/03/17 05:22:04;;;;;;;4.28;3.88;;;7.30;75.50;;;;;;5053643;28;20342;-79
2023/03/17 05:24:32;;;;;;;5.63;4.18;;;7.30;75.70;;;;;;5051319;28;20225;-79
2023/03/17 05:26:59;;;;;;;5.75;4.20;;;7.20;75.20;;;;;;5052433;28;20244;-76
2023/03/17 05:29:27;;;;;;;4.75;4.13;;;7.30;75.90;;;;;;5052711;28;20229;-79
2023/03/17 05:31:54;;;;;;;5.80;5.20;;;7.30;75.40;;;;;;5052134;28;20217;-76
2023/03/17 05:34:22;;;;;;;6.22;3.97;;;7.40;75.40;;;;;;5052687;28;20250;-76
2023/03/17 05:36:49;;;;;;;14.15;5.70;;;7.40;75.20;;;;;;5052448;28;20235;-76
2023/03/17 05:39:16;;;;;;;4.50;4.10;;;7.40;74.50;;;;;;5056245;28;20233;-79
2023/03/17 05:41:44;;;;;;;7.20;4.55;;;7.40;74.40;;;;;;5056099;28;20674;-80
2023/03/17 05:44:11;;;;;;;6.57;4.43;;;7.40;74.70;;;;;;5056551;28;20228;-76
2023/03/17 05:46:39;;;;;;;5.65;4.80;;;7.40;74.40;;;;;;5055811;28;20294;-76
2023/03/17 05:49:07;;;;;;;6.18;4.13;;;7.40;74.50;;;;;;5056491;28;20297;-78
2023/03/17 05:51:34;;;;;;;6.60;4.55;;;7.50;74.50;;;;;;5055689;28;20316;-76
2023/03/17 05:54:04;;;;;;;5.80;4.10;;;7.50;74.10;;;;;;5056648;28;20544;-76
2023/03/17 05:56:32;;;;;;;7.35;4.75;;;7.50;74.10;;;;;;5055907;28;20216;-78
2023/03/17 05:58:59;;;;;;;5.28;4.70;;;7.50;73.40;;;;;;5055791;28;20244;-78
2023/03/17 06:01:26;;;;;;;7.40;3.83;;;7.50;73.40;;;;;;5056337;28;20565;-79
2023/03/17 06:03:55;;;;;;;6.22;5.00;;;7.50;72.60;;;;;;5055843;28;20224;-76
2023/03/17 06:06:22;;;;;;;8.32;5.05;;;7.50;73.00;;;;;;5055412;28;20251;-79
2023/03/17 06:08:49;;;;;;;6.75;6.15;;;7.40;72.60;;;;;;5055393;28;20235;-76
2023/03/17 06:11:18;;;;;;;7.35;5.32;;;7.40;73.00;;;;;;5056240;28;20228;-76
2023/03/17 06:13:45;;;;;;;12.23;7.70;;;7.40;73.30;;;;;;5054581;28;20235;-76
2023/03/17 06:16:12;;;;;;;8.20;6.95;;;7.40;73.40;;;;;;5055025;28;20224;-80
2023/03/17 06:18:39;;;;;;;8.35;6.53;;;7.40;73.40;;;;;;5055192;28;20252;-79
2023/03/17 06:21:08;;;;;;;5.85;4.80;;;7.50;73.50;;;;;;5055529;28;20235;-79
2023/03/17 06:23:35;;;;;;;9.40;5.72;;;7.50;72.90;;;;;;5055811;28;20237;-79
2023/03/17 06:26:02;;;;;;;4.75;4.25;;;7.50;72.80;;;;;;5055424;28;20221;-79
2023/03/17 06:28:29;;;;;;;7.22;5.28;;;7.50;73.00;;;;;;5055479;28;20224;-79
2023/03/17 06:30:56;;;;;;;6.05;5.40;;;7.60;73.50;;;;;;5055107;28;20224;-80
2023/03/17 06:33:23;;;;;;;5.90;5.03;;;7.60;73.60;;;;;;5056015;28;20232;-79
2023/03/17 06:35:51;;;;;;;8.57;6.28;;;7.60;73.00;;;;;;5055361;28;20236;-76
2023/03/17 06:38:20;;;;;;;6.50;4.97;;;7.60;73.30;;;;;;5055744;28;20674;-79
2023/03/17 06:40:47;;;;;;;5.22;4.72;;;7.50;72.10;;;;;;5054262;28;20303;-76
2023/03/17 06:43:14;;;;;;;7.10;4.97;;;7.60;72.60;;;;;;5055162;28;20229;-76
2023/03/17 06:45:41;;;;;;;7.43;6.10;;;7.60;72.30;;;;;;5055057;28;20232;-76
2023/03/17 06:48:08;;;;;;;7.15;5.50;;;7.50;72.30;;;;;;5053819;28;20290;-79
2023/03/17 06:50:35;;;;;;;6.60;4.63;;;7.50;71.90;;;;;;5055241;28;20582;-79
2023/03/17 06:53:02;;;;;;;6.60;5.07;;;7.50;72.40;;;;;;5054538;28;20345;-76
2023/03/17 06:55:32;;;;;;;5.80;5.05;;;7.50;72.40;;;;;;5055135;28;20255;-80
2023/03/17 06:57:59;;;;;;;7.05;4.50;;;7.60;73.00;;;;;;5053971;28;20241;-80
2023/03/17 07:00:27;;;;;;;7.75;5.15;;;7.60;72.30;;;;;;5054851;28;20244;-80
2023/03/17 07:02:54;;;;;;;6.45;4.70;;;7.60;72.60;;;;;;5053976;28;20287;-80
2023/03/17 07:05:21;;;;;;;7.10;4.47;;;7.70;72.60;;;;;;5055011;28;20670;-80
2023/03/17 07:07:48;;;;;;;7.32;5.30;;;7.70;72.00;;;;;;5054405;28;20228;-80
2023/03/17 07:10:18;;;;;;;5.72;4.40;;;7.70;71.70;;;;;;5055146;28;20309;-80
2023/03/17 07:12:46;;;;;;;7.45;4.25;;;7.70;71.70;;;;;;5053238;28;20248;-77
2023/03/17 07:15:13;;;;;;;6.82;4.35;;;7.80;71.50;;;;;;5054950;28;20216;-76
2023/03/17 07:17:41;;;;;;;8.38;4.50;;;7.70;71.00;;;;;;5054800;28;20306;-80
2023/03/17 07:20:10;;;;;;;9.13;4.72;;;7.80;71.60;;;;;;5054218;28;20282;-80
2023/03/17 07:22:37;;;;;;;7.55;5.55;;;7.80;71.70;;;;;;5054565;28;20224;-81
2023/03/17 07:25:04;;;;;;;8.65;5.00;;;7.80;71.80;;;;;;5053983;28;20586;-80
2023/03/17 07:27:31;;;;;;;5.75;4.80;;;7.90;71.40;;;;;;5054609;28;20298;-80
2023/03/17 07:30:03;;;;;;;6.68;3.97;;;8.00;71.50;;;;;;5054201;28;20225;-79
2023/03/17 07:32:30;;;;;;;5.95;5.22;;;8.00;71.10;;;;;;5054593;28;20328;-80
2023/03/17 07:34:57;;;;;;;6.40;4.38;;;8.10;71.10;;;;;;5054418;28;20608;-80
2023/03/17 07:37:24;;;;;;;8.27;4.25;;;8.20;70.90;;;;;;5054654;28;20545;-79
2023/03/17 07:39:51;;;;;;;10.07;4.85;;;8.30;70.50;;;;;;5053992;28;20307;-79
2023/03/17 07:42:18;;;;;;;4.70;4.25;;;8.40;70.00;;;;;;5054505;28;20224;-79
2023/03/17 07:44:45;;;;;;;7.50;4.85;;;8.50;70.20;;;;;;5054479;28;20556;-80
2023/03/17 07:47:14;;;;;;;6.40;5.10;;;8.50;69.50;;;;;;5053812;28;20224;-79
2023/03/17 07:49:41;;;;;;;5.28;4.40;;;8.50;69.20;;;;;;5054488;28;20255;-79
2023/03/17 07:52:09;;;;;;;7.28;4.80;;;8.50;68.90;;;;;;5054025;28;20233;-79
2023/03/17 07:54:36;;;;;;;5.65;4.20;;;8.60;69.00;;;;;;5054028;28;20255;-79
2023/03/17 07:57:04;;;;;;;7.95;4.90;;;8.60;68.70;;;;;;5053806;28;20240;-79
2023/03/17 07:59:31;;;;;;;6.38;4.80;;;8.60;67.90;;;;;;5053247;28;20236;-77
2023/03/17 08:02:00;;;;;;;7.78;4.30;;;8.70;68.50;;;;;;5053373;28;20575;-76
2023/03/17 08:04:28;;;;;;;8.48;4.65;;;8.80;69.10;;;;;;5054039;28;20252;-76
2023/03/17 08:06:56;;;;;;;5.07;4.57;;;8.90;69.10;;;;;;5053179;28;20244;-77
2023/03/17 08:09:23;;;;;;;7.43;4.68;;;9.00;68.10;;;;;;5053646;28;20658;-76
2023/03/17 08:11:50;;;;;;;8.15;4.35;;;9.10;68.30;;;;;;5053157;28;20228;-79
2023/03/17 08:14:17;;;;;;;9.10;4.60;;;9.20;67.10;;;;;;5053371;28;20307;-76
2023/03/17 08:16:45;;;;;;;5.18;4.15;;;9.20;67.30;;;;;;5053754;28;20235;-80
2023/03/17 08:19:12;;;;;;;5.05;4.40;;;9.30;66.00;;;;;;5052915;28;20243;-77
2023/03/17 08:21:40;;;;;;;5.85;4.40;;;9.40;66.10;;;;;;5057035;28;20220;-76
2023/03/17 08:24:08;;;;;;;9.43;4.88;;;9.50;66.10;;;;;;5052844;28;20229;-79
2023/03/17 08:26:36;;;;;;;5.18;4.63;;;9.50;65.80;;;;;;5052757;28;20263;-76
2023/03/17 08:29:03;;;;;;;4.85;4.40;;;9.70;66.20;;;;;;5052073;28;20237;-76
2023/03/17 08:31:32;;;;;;;5.82;4.13;;;9.80;65.40;;;;;;5053016;28;20251;-76
2023/03/17 08:34:01;;;;;;;4.68;4.15;;;9.80;64.80;;;;;;5052453;28;20319;-77
2023/03/17 08:36:29;;;;;;;7.03;4.68;;;9.90;64.30;;;;;;5049500;28;20224;-77
2023/03/17 08:38:57;;;;;;;6.50;5.65;;;9.90;64.20;;;;;;5050766;28;20239;-77
2023/03/17 08:41:26;;;;;;;5.90;5.05;;;9.90;63.60;;;;;;5053509;28;20562;-77
2023/03/17 08:43:54;;;;;;;4.63;4.20;;;9.90;63.50;;;;;;5052586;28;20225;-77
2023/03/17 08:46:24;;;;;;;5.85;4.70;;;10.00;62.60;;;;;;5053042;28;20220;-78
2023/03/17 08:48:52;;;;;;;6.57;4.55;;;10.00;62.20;;;;;;5053030;28;20336;-77
2023/03/17 08:51:20;;;;;;;5.85;4.53;;;10.00;62.90;;;;;;5051894;28;20220;-77
2023/03/17 08:53:47;;;;;;;5.60;5.10;;;10.00;63.20;;;;;;5052522;28;20301;-77
2023/03/17 08:56:16;;;;;;;4.90;4.45;;;10.10;64.10;;;;;;5052404;28;20232;-77
2023/03/17 08:58:43;;;;;;;4.97;4.55;;;10.20;63.40;;;;;;5052013;28;20229;-77
2023/03/17 09:01:24;;;;;;;6.22;4.70;;;10.30;63.60;;;;;;5042551;28;20224;-75
2023/03/17 09:03:53;;;;;;;6.15;4.80;;;10.40;63.50;;;;;;5052912;28;20227;-79
2023/03/17 09:06:29;;;;;;;6.80;4.38;;;10.40;62.50;;;;;;5051089;28;20220;-79
2023/03/17 09:08:56;;;;;;;5.50;3.90;;;10.50;61.80;;;;;;5052086;28;20230;-75
2023/03/17 09:11:27;;;;;;;9.93;4.80;;;10.50;62.10;;;;;;5051971;28;20225;-76
2023/03/17 09:13:55;;;;;;;5.93;3.78;;;10.50;62.00;;;;;;5052175;28;20228;-79
2023/03/17 09:16:23;;;;;;;10.15;4.90;;;10.60;62.60;;;;;;5052227;28;20232;-79
2023/03/17 09:18:50;;;;;;;7.57;4.95;;;10.60;62.40;;;;;;5052825;28;20224;-79
2023/03/17 09:21:17;;;;;;;7.00;4.20;;;10.60;62.10;;;;;;5052251;28;20224;-80
2023/03/17 09:23:45;;;;;;;6.40;3.90;;;10.70;62.60;;;;;;5052905;28;20244;-79
2023/03/17 09:26:12;;;;;;;4.53;4.13;;;10.70;61.50;;;;;;5052156;28;20293;-79
2023/03/17 09:28:41;;;;;;;4.07;3.75;;;10.70;61.40;;;;;;5042229;28;20736;-80
2023/03/17 09:31:10;;;;;;;5.97;4.22;;;10.70;61.50;;;;;;5044917;28;20228;-79
2023/03/17 09:33:37;;;;;;;4.97;4.28;;;10.80;62.60;;;;;;5065194;28;20252;-79
2023/03/17 09:36:05;;;;;;;4.53;3.90;;;10.80;61.40;;;;;;5052396;28;20225;-79
2023/03/17 09:38:33;;;;;;;15.73;4.47;;;10.80;61.40;;;;;;5052251;28;20232;-75
2023/03/17 09:41:11;;;;;;;5.30;4.80;;;10.80;61.90;;;;;;5051229;28;20228;-76
2023/03/17 09:43:47;;;;;;;6.22;4.88;;;10.90;62.00;;;;;;5052281;28;20551;-79
2023/03/17 09:46:34;;;;;;;5.07;4.30;;;11.00;62.30;;;;;;5051782;28;20231;-77
2023/03/17 09:49:09;;;;;;;8.10;5.00;;;11.00;62.00;;;;;;5051906;28;20289;-78
2023/03/17 09:51:36;;;;;;;6.88;4.03;;;11.10;61.90;;;;;;5051918;28;20224;-79
2023/03/17 09:54:06;;;;;;;7.22;4.68;;;11.20;62.30;;;;;;5051935;28;20228;-79
2023/03/17 09:56:36;;;;;;;7.20;4.75;;;11.20;61.50;;;;;;5052153;28;20329;-80
2023/03/17 09:59:07;;;;;;;7.93;4.85;;;11.20;61.50;;;;;;5051523;28;20252;-79
2023/03/17 10:01:35;;;;;;;6.65;4.15;;;11.40;62.30;;;;;;5051809;28;20678;-78
2023/03/17 10:04:03;;;;;;;9.40;5.13;;;11.50;61.80;;;;;;5051760;28;20566;-76
2023/03/17 10:06:36;;;;;;;6.18;4.07;;;11.60;62.00;;;;;;5052086;28;20228;-75
2023/03/17 10:09:15;;;;;;;8.82;4.70;;;11.80;61.40;;;;;;5051570;28;20633;-78
2023/03/17 10:11:45;;;;;;;6.18;4.72;;;11.80;61.10;;;;;;5051996;28;20677;-78
2023/03/17 10:14:50;;;;;;;8.95;4.53;;;11.90;60.60;;;;;;5051241;28;20243;-79
2023/03/17 10:17:19;;;;;;;5.07;4.28;;;12.00;60.90;;;;;;5051611;28;20243;-80
2023/03/17 10:19:55;;;;;;;4.35;3.95;;;12.20;60.20;;;;;;5052577;28;20240;-79
2023/03/17 10:22:29;;;;;;;5.00;4.53;;;12.20;59.90;;;;;;5053039;28;20307;-76
2023/03/17 10:25:02;;;;;;;6.07;3.85;;;12.30;60.70;;;;;;5056108;28;20221;-76
2023/03/17 10:27:35;;;;;;;5.18;4.07;;;12.40;60.00;;;;;;5055667;28;20563;-79
2023/03/17 10:30:11;;;;;;;4.47;3.78;;;12.50;60.70;;;;;;5059606;28;20548;-78
2023/03/17 10:32:39;;;;;;;5.70;4.13;;;12.50;59.40;;;;;;5055881;28;20212;-79
2023/03/17 10:35:09;;;;;;;4.88;3.88;;;12.60;59.60;;;;;;5056314;28;20255;-78
2023/03/17 10:37:36;;;;;;;6.20;4.72;;;12.60;59.40;;;;;;5055757;28;20240;-76
2023/03/17 10:40:09;;;;;;;5.65;3.85;;;12.70;59.10;;;;;;5056218;28;20307;-78
2023/03/17 10:42:46;;;;;;;7.30;4.05;;;12.70;58.60;;;;;;5055639;28;20311;-78
2023/03/17 10:45:23;;;;;;;5.40;3.90;;;12.60;58.90;;;;;;5055330;28;20220;-76
2023/03/17 10:47:51;;;;;;;4.07;3.33;;;12.70;59.20;;;;;;5053187;28;20247;-76
2023/03/17 10:50:29;;;;;;;4.70;4.18;;;12.70;58.70;;;;;;5055582;28;20267;-76
2023/03/17 10:53:00;;;;;;;4.40;4.00;;;12.80;58.70;;;;;;5055130;28;20605;-76
2023/03/17 10:55:31;;;;;;;5.20;4.72;;;12.80;58.70;;;;;;5055726;28;20225;-78
2023/03/17 10:58:06;;;;;;;4.55;4.15;;;12.90;58.60;;;;;;5044266;28;20232;-80
2023/03/17 11:00:54;;;;;;;10.68;3.95;;;12.90;58.60;;;;;;5055609;28;20627;-76
2023/03/17 11:03:23;;;;;;;4.18;3.05;;;12.80;58.30;;;;;;5053254;28;20216;-76
2023/03/17 11:06:01;;;;;;;3.97;3.60;;;12.80;58.20;;;;;;5055062;28;20246;-76
2023/03/17 11:08:32;;;;;;;5.32;3.70;;;12.90;58.60;;;;;;5054199;28;20381;-76
2023/03/17 11:10:59;;;;;;;4.78;3.50;;;12.90;58.20;;;;;;5055430;28;20220;-76
2023/03/17 11:13:30;;;;;;;8.48;4.35;;;12.90;58.00;;;;;;5054356;28;20358;-77
2023/03/17 11:16:45;;;;;;;5.55;3.80;;;13.10;58.40;;;;;;5054394;28;20519;-76
2023/03/17 11:19:44;;;;;;;5.03;3.93;;;13.20;58.10;;;;;;4950678;28;20374;-76
2023/03/17 11:22:16;;;;;;;4.33;3.90;;;13.20;58.20;;;;;;4967804;28;20562;-76
2023/03/17 11:24:55;;;;;;;8.13;3.97;;;13.40;58.50;;;;;;5030328;28;20463;-78
2023/03/17 11:27:31;;;;;;;3.97;3.33;;;13.40;58.10;;;;;;5055411;28;20315;-79
2023/03/17 11:30:16;;;;;;;3.60;3.10;;;13.50;58.30;;;;;;5055147;28;20308;-79
2023/03/17 11:32:51;;;;;;;4.23;3.27;;;13.60;58.60;;;;;;5057059;28;20233;-75
2023/03/17 11:35:42;;;;;;;4.45;3.90;;;13.60;57.80;;;;;;5053806;28;20546;-80
2023/03/17 11:38:21;;;;;;;3.30;3.00;;;13.60;57.20;;;;;;5054907;28;20552;-77
2023/03/17 11:41:13;;;;;;;4.63;3.13;;;13.60;57.10;;;;;;5054204;28;20607;-77
2023/03/17 11:44:04;;;;;;;3.57;3.07;;;13.70;57.30;;;;;;5054015;28;20470;-78
2023/03/17 11:46:36;;;;;;;3.63;2.90;;;13.80;57.40;;;;;;5051285;28;20528;-76
2023/03/17 11:49:11;;;;;;;3.30;2.90;;;13.80;56.80;;;;;;5054637;28;20239;-79
2023/03/17 11:51:50;;;;;;;3.17;2.73;;;13.90;56.90;;;;;;5054086;28;20475;-79
2023/03/17 11:54:27;;;;;;;4.85;3.67;;;14.00;56.80;;;;;;5054463;28;20558;-79
2023/03/17 11:56:58;;;;;;;3.33;3.03;;;14.00;56.40;;;;;;5054429;28;20299;-79
2023/03/17 11:59:53;;;;;;;6.30;3.73;;;14.00;56.60;;;;;;5048333;28;20482;-79
2023/03/17 12:06:05;;;;;;;4.63;4.03;;;14.10;56.80;;;;;;4983527;28;20453;-79
2023/03/17 12:09:32;;;;;;;5.50;3.90;;;14.10;57.20;;;;;;5094792;22;20575;-79
2023/03/17 12:12:01;;;;;;;4.40;3.30;;;14.10;57.60;;;;;;5073636;28;20492;-79
2023/03/17 12:14:33;;;;;;;3.57;2.93;;;14.20;57.90;;;;;;5074005;28;20475;-79
2023/03/17 12:17:06;;;;;;;4.50;2.90;;;14.20;57.50;;;;;;5073801;28;20458;-79
2023/03/17 12:19:42;;;;;;;4.07;3.00;;;14.30;57.50;;;;;;5074822;28;20800;-78
2023/03/17 12:22:19;;;;;;;4.93;2.93;;;14.40;57.40;;;;;;5074007;28;20534;-78
2023/03/17 12:24:57;;;;;;;4.23;2.80;;;14.40;56.80;;;;;;5072269;28;20474;-78
2023/03/17 12:27:30;;;;;;;3.63;2.80;;;14.30;56.60;;;;;;5073378;28;20462;-79
2023/03/17 12:30:01;;;;;;;3.63;3.33;;;14.40;56.30;;;;;;5073266;28;20562;-76
2023/03/17 12:32:38;;;;;;;3.10;2.80;;;14.40;56.70;;;;;;5075123;28;20478;-75
2023/03/17 12:35:22;;;;;;;5.83;3.27;;;14.40;56.90;;;;;;5076926;28;20971;-79
2023/03/17 12:37:50;;;;;;;4.70;3.30;;;14.50;56.90;;;;;;5072775;28;20807;-79
2023/03/17 12:40:30;;;;;;;7.17;2.90;;;14.40;56.70;;;;;;5073555;28;20536;-80
2023/03/17 12:43:14;;;;;;;3.40;3.10;;;14.50;56.90;;;;;;5080279;28;20462;-79
2023/03/17 12:45:52;;;;;;;3.33;2.33;;;14.40;56.90;;;;;;5077267;28;20527;-77
2023/03/17 12:48:34;;;;;;;3.57;3.10;;;14.50;56.80;;;;;;5074511;28;20470;-76
2023/03/17 12:51:34;;;;;;;3.00;2.57;;;14.40;56.40;;;;;;5072398;28;21014;-76
2023/03/17 12:54:02;;;;;;;3.10;2.60;;;14.50;56.50;;;;;;5073749;28;20497;-77
2023/03/17 12:56:32;;;;;;;3.80;2.97;;;14.40;56.20;;;;;;5073798;28;20458;-79
2023/03/17 12:59:04;;;;;;;3.63;3.27;;;14.40;56.50;;;;;;5072118;28;20474;-79
2023/03/17 13:01:33;;;;;;;3.20;2.33;;;14.40;56.60;;;;;;5073057;28;20532;-79
2023/03/17 13:04:12;;;;;;;3.03;2.50;;;14.40;56.50;;;;;;5072429;28;20519;-80
2023/03/17 13:06:43;;;;;;;4.47;2.90;;;14.50;56.90;;;;;;5072954;28;20466;-79
2023/03/17 13:09:42;;;;;;;3.83;3.10;;;14.60;56.10;;;;;;5071864;28;20506;-76
2023/03/17 13:12:54;;;;;;;2.63;2.40;;;14.60;56.40;;;;;;5072559;28;20477;-79
2023/03/17 13:15:45;;;;;;;3.50;2.90;;;14.70;56.30;;;;;;5071522;28;20466;-79